createdAt,value
2023-02-02T00:00:21.145Z,88600.00
2023-02-02T00:01:21.152Z,88598.00
2023-02-02T00:02:21.146Z,88594.00
2023-02-02T00:03:21.089Z,88598.00
2023-02-02T00:04:21.047Z,88598.00
2023-02-02T00:05:21.049Z,88602.00
2023-02-02T00:06:21.011Z,88606.00
2023-02-02T00:07:20.963Z,88606.00
2023-02-02T00:08:20.950Z,88602.00
2023-02-02T00:09:20.924Z,88598.00
2023-02-02T00:10:20.905Z,88592.00
2023-02-02T00:11:20.877Z,88590.00
2023-02-02T00:12:20.842Z,88590.00
2023-02-02T00:13:20.822Z,88588.00
2023-02-02T00:14:20.797Z,88590.00
2023-02-02T00:15:20.789Z,88588.00
2023-02-02T00:16:20.785Z,88588.00
2023-02-02T00:17:20.731Z,88582.00
2023-02-02T00:18:20.723Z,88580.00
2023-02-02T00:19:20.677Z,88580.00
2023-02-02T00:20:20.667Z,88582.00
2023-02-02T00:21:20.638Z,88588.00
2023-02-02T00:22:20.618Z,88590.00
2023-02-02T00:23:20.596Z,88586.00
2023-02-02T00:24:20.563Z,88586.00
2023-02-02T00:25:20.548Z,88582.00
2023-02-02T00:26:20.533Z,88580.00
2023-02-02T00:27:20.489Z,88578.00
2023-02-02T00:28:20.480Z,88580.00
2023-02-02T00:29:20.452Z,88578.00
2023-02-02T00:30:20.418Z,88574.00
2023-02-02T00:31:20.442Z,88570.00
2023-02-02T00:32:20.362Z,88570.00
2023-02-02T00:33:20.337Z,88568.00
2023-02-02T00:34:20.311Z,88574.00
2023-02-02T00:35:20.287Z,88572.00
2023-02-02T00:36:20.264Z,88572.00
2023-02-02T00:37:20.259Z,88578.00
2023-02-02T00:38:20.218Z,88582.00
2023-02-02T00:39:20.186Z,88586.00
2023-02-02T00:40:20.156Z,88586.00
2023-02-02T00:41:20.137Z,88586.00
2023-02-02T00:42:20.111Z,88588.00
2023-02-02T00:43:20.098Z,88588.00
2023-02-02T00:44:20.065Z,88586.00
2023-02-02T00:45:20.047Z,88580.00
2023-02-02T00:46:19.993Z,88580.00
2023-02-02T00:47:19.967Z,88578.00
2023-02-02T00:48:19.948Z,88580.00
2023-02-02T00:49:19.922Z,88574.00
2023-02-02T00:50:19.902Z,88570.00
2023-02-02T00:51:19.878Z,88572.00
2023-02-02T00:52:19.843Z,88578.00
2023-02-02T00:53:19.819Z,88580.00
2023-02-02T00:54:19.797Z,88582.00
2023-02-02T00:55:19.801Z,88582.00
2023-02-02T00:56:19.748Z,88580.00
2023-02-02T00:57:19.726Z,88580.00
2023-02-02T00:58:19.699Z,88582.00
2023-02-02T00:59:19.683Z,88580.00
2023-02-02T01:00:19.654Z,88580.00
2023-02-02T01:01:19.657Z,88584.00
2023-02-02T01:02:19.620Z,88588.00
2023-02-02T01:03:19.591Z,88590.00
2023-02-02T01:04:19.566Z,88592.00
2023-02-02T01:05:19.532Z,88594.00
2023-02-02T01:06:19.511Z,88596.00
2023-02-02T01:07:19.474Z,88600.00
2023-02-02T01:08:19.436Z,88600.00
2023-02-02T01:09:19.426Z,88604.00
2023-02-02T01:10:19.404Z,88604.00
2023-02-02T01:11:19.348Z,88594.00
2023-02-02T01:12:19.330Z,88584.00
2023-02-02T01:13:19.306Z,88576.00
2023-02-02T01:14:19.285Z,88572.00
2023-02-02T01:15:19.257Z,88576.00
2023-02-02T01:16:19.289Z,88582.00
2023-02-02T01:17:19.201Z,88586.00
2023-02-02T01:18:19.167Z,88592.00
2023-02-02T01:19:19.148Z,88594.00
2023-02-02T01:20:19.116Z,88592.00
2023-02-02T01:21:19.089Z,88594.00
2023-02-02T01:22:19.079Z,88594.00
2023-02-02T01:23:19.057Z,88594.00
2023-02-02T01:24:19.033Z,88598.00
2023-02-02T01:25:18.994Z,88604.00
2023-02-02T01:26:19.025Z,88604.00
2023-02-02T01:27:18.940Z,88600.00
2023-02-02T01:28:18.932Z,88600.00
2023-02-02T01:29:18.897Z,88604.00
2023-02-02T01:30:18.881Z,88600.00
2023-02-02T01:31:18.942Z,88602.00
2023-02-02T01:32:18.831Z,88606.00
2023-02-02T01:33:18.818Z,88602.00
2023-02-02T01:34:18.784Z,88602.00
2023-02-02T01:35:18.761Z,88602.00
2023-02-02T01:36:18.739Z,88604.00
2023-02-02T01:37:18.742Z,88602.00
2023-02-02T01:38:18.691Z,88602.00
2023-02-02T01:39:18.672Z,88602.00
2023-02-02T01:40:18.650Z,88604.00
2023-02-02T01:41:18.614Z,88602.00
2023-02-02T01:42:18.609Z,88600.00
2023-02-02T01:43:18.575Z,88598.00
2023-02-02T01:44:18.575Z,88600.00
2023-02-02T01:45:18.522Z,88602.00
2023-02-02T01:46:18.523Z,88600.00
2023-02-02T01:47:18.479Z,88598.00
2023-02-02T01:48:18.490Z,88592.00
2023-02-02T01:49:18.427Z,88584.00
2023-02-02T01:50:18.438Z,88578.00
2023-02-02T01:51:18.392Z,88576.00
2023-02-02T01:52:18.385Z,88576.00
2023-02-02T01:53:18.349Z,88578.00
2023-02-02T01:54:18.360Z,88578.00
2023-02-02T01:55:18.321Z,88574.00
2023-02-02T01:56:18.297Z,88568.00
2023-02-02T01:57:18.275Z,88570.00
2023-02-02T01:58:18.261Z,88574.00
2023-02-02T01:59:18.239Z,88576.00
2023-02-02T02:00:18.236Z,88576.00
2023-02-02T02:01:18.313Z,88580.00
2023-02-02T02:02:18.255Z,88578.00
2023-02-02T02:03:18.163Z,88574.00
2023-02-02T02:04:18.143Z,88576.00
2023-02-02T02:05:18.124Z,88584.00
2023-02-02T02:06:18.135Z,88586.00
2023-02-02T02:07:18.091Z,88586.00
2023-02-02T02:08:18.067Z,88586.00
2023-02-02T02:09:18.064Z,88584.00
2023-02-02T02:10:18.049Z,88588.00
2023-02-02T02:11:17.998Z,88582.00
2023-02-02T02:12:17.989Z,88580.00
2023-02-02T02:13:17.969Z,88582.00
2023-02-02T02:14:17.943Z,88584.00
2023-02-02T02:15:17.924Z,88584.00
2023-02-02T02:16:17.923Z,88584.00
2023-02-02T02:17:17.887Z,88590.00
2023-02-02T02:18:17.856Z,88594.00
2023-02-02T02:19:17.831Z,88592.00
2023-02-02T02:20:17.825Z,88592.00
2023-02-02T02:21:17.793Z,88594.00
2023-02-02T02:22:17.767Z,88590.00
2023-02-02T02:23:17.742Z,88588.00
2023-02-02T02:24:17.740Z,88584.00
2023-02-02T02:25:17.711Z,88584.00
2023-02-02T02:26:17.692Z,88588.00
2023-02-02T02:27:17.665Z,88586.00
2023-02-02T02:28:17.633Z,88586.00
2023-02-02T02:29:17.648Z,88582.00
2023-02-02T02:30:17.604Z,88578.00
2023-02-02T02:31:17.681Z,88580.00
2023-02-02T02:32:17.548Z,88580.00
2023-02-02T02:33:17.514Z,88576.00
2023-02-02T02:34:17.499Z,88576.00
2023-02-02T02:35:17.476Z,88580.00
2023-02-02T02:36:17.448Z,88584.00
2023-02-02T02:37:17.452Z,88588.00
2023-02-02T02:38:17.409Z,88592.00
2023-02-02T02:39:17.406Z,88594.00
2023-02-02T02:40:17.390Z,88586.00
2023-02-02T02:41:17.373Z,88586.00
2023-02-02T02:42:17.339Z,88586.00
2023-02-02T02:43:17.310Z,88584.00
2023-02-02T02:44:17.288Z,88588.00
2023-02-02T02:45:17.281Z,88588.00
2023-02-02T02:46:17.263Z,88582.00
2023-02-02T02:47:17.203Z,88582.00
2023-02-02T02:48:17.175Z,88588.00
2023-02-02T02:49:17.152Z,88586.00
2023-02-02T02:50:17.144Z,88586.00
2023-02-02T02:51:17.109Z,88584.00
2023-02-02T02:52:17.086Z,88582.00
2023-02-02T02:53:17.065Z,88582.00
2023-02-02T02:54:17.032Z,88582.00
2023-02-02T02:55:17.032Z,88582.00
2023-02-02T02:56:16.988Z,88580.00
2023-02-02T02:57:16.964Z,88578.00
2023-02-02T02:58:16.962Z,88578.00
2023-02-02T02:59:16.929Z,88576.00
2023-02-02T03:00:16.901Z,88576.00
2023-02-02T03:01:16.954Z,88572.00
2023-02-02T03:02:16.934Z,88574.00
2023-02-02T03:03:16.835Z,88572.00
2023-02-02T03:04:16.813Z,88576.00
2023-02-02T03:05:16.804Z,88576.00
2023-02-02T03:06:16.788Z,88580.00
2023-02-02T03:07:16.752Z,88580.00
2023-02-02T03:08:16.729Z,88580.00
2023-02-02T03:09:16.704Z,88578.00
2023-02-02T03:10:16.675Z,88578.00
2023-02-02T03:11:16.681Z,88572.00
2023-02-02T03:12:16.639Z,88568.00
2023-02-02T03:13:16.623Z,88570.00
2023-02-02T03:14:16.618Z,88570.00
2023-02-02T03:15:16.588Z,88570.00
2023-02-02T03:16:16.576Z,88566.00
2023-02-02T03:17:16.560Z,88570.00
2023-02-02T03:18:16.528Z,88570.00
2023-02-02T03:19:16.514Z,88566.00
2023-02-02T03:20:16.495Z,88566.00
2023-02-02T03:21:16.493Z,88564.00
2023-02-02T03:22:16.459Z,88561.00
2023-02-02T03:23:16.436Z,88553.00
2023-02-02T03:24:16.414Z,88543.00
2023-02-02T03:25:16.415Z,88539.00
2023-02-02T03:26:16.450Z,88545.00
2023-02-02T03:27:16.358Z,88557.00
2023-02-02T03:28:16.339Z,88563.00
2023-02-02T03:29:16.307Z,88564.00
2023-02-02T03:30:16.296Z,88557.00
2023-02-02T03:31:16.294Z,88553.00
2023-02-02T03:32:16.251Z,88555.00
2023-02-02T03:33:16.231Z,88557.00
2023-02-02T03:34:16.223Z,88549.00
2023-02-02T03:35:16.200Z,88545.00
2023-02-02T03:36:16.173Z,88545.00
2023-02-02T03:37:16.152Z,88543.00
2023-02-02T03:38:16.130Z,88549.00
2023-02-02T03:39:16.116Z,88555.00
2023-02-02T03:40:16.081Z,88561.00
2023-02-02T03:41:16.072Z,88559.00
2023-02-02T03:42:16.038Z,88555.00
2023-02-02T03:43:16.024Z,88553.00
2023-02-02T03:44:16.010Z,88549.00
2023-02-02T03:45:15.985Z,88551.00
2023-02-02T03:46:15.987Z,88553.00
2023-02-02T03:47:15.943Z,88553.00
2023-02-02T03:48:15.918Z,88555.00
2023-02-02T03:49:15.902Z,88557.00
2023-02-02T03:50:15.885Z,88557.00
2023-02-02T03:51:15.859Z,88557.00
2023-02-02T03:52:15.849Z,88561.00
2023-02-02T03:53:15.821Z,88564.00
2023-02-02T03:54:15.791Z,88568.00
2023-02-02T03:55:15.792Z,88568.00
2023-02-02T03:56:15.760Z,88568.00
2023-02-02T03:57:15.743Z,88564.00
2023-02-02T03:58:15.725Z,88564.00
2023-02-02T03:59:15.711Z,88563.00
2023-02-02T04:00:15.688Z,88568.00
2023-02-02T04:01:15.656Z,88570.00
2023-02-02T04:02:15.637Z,88572.00
2023-02-02T04:03:15.637Z,88570.00
2023-02-02T04:04:15.598Z,88568.00
2023-02-02T04:05:15.586Z,88570.00
2023-02-02T04:06:15.575Z,88574.00
2023-02-02T04:07:15.554Z,88570.00
2023-02-02T04:08:15.535Z,88570.00
2023-02-02T04:09:15.529Z,88568.00
2023-02-02T04:10:15.502Z,88564.00
2023-02-02T04:11:15.489Z,88564.00
2023-02-02T04:12:15.481Z,88563.00
2023-02-02T04:13:15.452Z,88564.00
2023-02-02T04:14:15.426Z,88568.00
2023-02-02T04:15:15.416Z,88568.00
2023-02-02T04:16:15.446Z,88564.00
2023-02-02T04:17:15.378Z,88566.00
2023-02-02T04:18:15.344Z,88566.00
2023-02-02T04:19:15.325Z,88563.00
2023-02-02T04:20:15.314Z,88563.00
2023-02-02T04:21:15.309Z,88563.00
2023-02-02T04:22:15.266Z,88561.00
2023-02-02T04:23:15.248Z,88561.00
2023-02-02T04:24:15.232Z,88561.00
2023-02-02T04:25:15.204Z,88564.00
2023-02-02T04:26:15.173Z,88566.00
2023-02-02T04:27:15.166Z,88570.00
2023-02-02T04:28:15.142Z,88574.00
2023-02-02T04:29:15.113Z,88570.00
2023-02-02T04:30:15.093Z,88568.00
2023-02-02T04:31:15.111Z,88568.00
2023-02-02T04:32:15.071Z,88572.00
2023-02-02T04:33:15.038Z,88574.00
2023-02-02T04:34:15.001Z,88574.00
2023-02-02T04:35:14.977Z,88568.00
2023-02-02T04:36:14.932Z,88564.00
2023-02-02T04:37:14.934Z,88563.00
2023-02-02T04:38:14.878Z,88566.00
2023-02-02T04:39:14.893Z,88570.00
2023-02-02T04:40:14.835Z,88568.00
2023-02-02T04:41:14.809Z,88563.00
2023-02-02T04:42:14.799Z,88557.00
2023-02-02T04:43:14.775Z,88559.00
2023-02-02T04:44:14.771Z,88559.00
2023-02-02T04:45:14.731Z,88561.00
2023-02-02T04:46:14.730Z,88564.00
2023-02-02T04:47:14.678Z,88564.00
2023-02-02T04:48:14.686Z,88566.00
2023-02-02T04:49:14.640Z,88568.00
2023-02-02T04:50:14.626Z,88570.00
2023-02-02T04:51:14.608Z,88570.00
2023-02-02T04:52:14.567Z,88572.00
2023-02-02T04:53:14.552Z,88576.00
2023-02-02T04:54:14.526Z,88580.00
2023-02-02T04:55:14.518Z,88578.00
2023-02-02T04:56:14.491Z,88578.00
2023-02-02T04:57:14.486Z,88582.00
2023-02-02T04:58:14.458Z,88584.00
2023-02-02T04:59:14.437Z,88588.00
2023-02-02T05:00:14.431Z,88588.00
2023-02-02T05:01:14.458Z,88586.00
2023-02-02T05:02:14.388Z,88592.00
2023-02-02T05:03:14.368Z,88598.00
2023-02-02T05:04:14.404Z,88598.00
2023-02-02T05:05:14.348Z,88600.00
2023-02-02T05:06:15.957Z,88604.00
2023-02-02T05:07:14.307Z,88600.00
2023-02-02T05:08:14.273Z,88600.00
2023-02-02T05:09:14.262Z,88600.00
2023-02-02T05:10:14.260Z,88602.00
2023-02-02T05:11:14.214Z,88604.00
2023-02-02T05:12:14.199Z,88608.00
2023-02-02T05:13:14.170Z,88610.00
2023-02-02T05:14:14.145Z,88616.00
2023-02-02T05:15:14.147Z,88612.00
2023-02-02T05:16:14.178Z,88610.00
2023-02-02T05:17:14.105Z,88608.00
2023-02-02T05:18:14.076Z,88616.00
2023-02-02T05:19:14.265Z,88619.00
2023-02-02T05:20:14.037Z,88616.00
2023-02-02T05:21:14.013Z,88614.00
2023-02-02T05:22:13.980Z,88618.00
2023-02-02T05:23:13.948Z,88616.00
2023-02-02T05:24:13.922Z,88614.00
2023-02-02T05:25:13.890Z,88608.00
2023-02-02T05:26:13.861Z,88612.00
2023-02-02T05:27:13.844Z,88616.00
2023-02-02T05:28:13.827Z,88612.00
2023-02-02T05:29:13.786Z,88610.00
2023-02-02T05:30:13.750Z,88610.00
2023-02-02T05:31:13.800Z,88614.00
2023-02-02T05:32:13.692Z,88614.00
2023-02-02T05:33:13.687Z,88612.00
2023-02-02T05:34:13.642Z,88614.00
2023-02-02T05:35:13.609Z,88612.00
2023-02-02T05:36:13.585Z,88602.00
2023-02-02T05:37:13.552Z,88602.00
2023-02-02T05:38:13.540Z,88604.00
2023-02-02T05:39:13.490Z,88604.00
2023-02-02T05:40:13.455Z,88600.00
2023-02-02T05:41:13.432Z,88592.00
2023-02-02T05:42:13.402Z,88588.00
2023-02-02T05:43:13.385Z,88588.00
2023-02-02T05:44:13.363Z,88586.00
2023-02-02T05:45:13.344Z,88586.00
2023-02-02T05:46:13.382Z,88586.00
2023-02-02T05:47:13.299Z,88592.00
2023-02-02T05:48:13.272Z,88588.00
2023-02-02T05:49:13.255Z,88584.00
2023-02-02T05:50:13.224Z,88586.00
2023-02-02T05:51:13.204Z,88584.00
2023-02-02T05:52:13.174Z,88580.00
2023-02-02T05:53:13.149Z,88584.00
2023-02-02T05:54:13.148Z,88588.00
2023-02-02T05:55:13.099Z,88592.00
2023-02-02T05:56:13.074Z,88590.00
2023-02-02T05:57:13.039Z,88588.00
2023-02-02T05:58:13.013Z,88584.00
2023-02-02T05:59:12.994Z,88586.00
2023-02-02T06:00:13.102Z,88588.00
2023-02-02T06:01:12.940Z,88590.00
2023-02-02T06:02:12.897Z,88588.00
2023-02-02T06:03:13.111Z,88590.00
2023-02-02T06:04:12.886Z,88592.00
2023-02-02T06:23:12.362Z,88586.00
2023-02-02T06:24:12.338Z,88588.00
2023-02-02T06:25:12.308Z,88592.00
2023-02-02T06:26:12.297Z,88596.00
2023-02-02T06:27:12.266Z,88596.00
2023-02-02T06:28:12.234Z,88590.00
2023-02-02T06:29:12.208Z,88590.00
2023-02-02T06:30:12.187Z,88586.00
2023-02-02T06:31:12.246Z,88586.00
2023-02-02T06:32:12.281Z,88580.00
2023-02-02T06:33:12.140Z,88586.00
2023-02-02T06:34:12.093Z,88588.00
2023-02-02T06:36:12.086Z,88594.00
2023-02-02T06:37:12.033Z,88600.00
2023-02-02T06:38:12.015Z,88596.00
2023-02-02T06:39:11.997Z,88588.00
2023-02-02T06:40:11.966Z,88586.00
2023-02-02T06:41:11.932Z,88586.00
2023-02-02T06:42:20.713Z,88592.00
2023-02-02T06:43:11.891Z,88598.00
2023-02-02T06:44:11.866Z,88594.00
2023-02-02T06:45:11.826Z,88594.00
2023-02-02T06:46:11.842Z,88596.00
2023-02-02T06:47:11.792Z,88592.00
2023-02-02T06:48:11.777Z,88594.00
2023-02-02T06:49:11.730Z,88594.00
2023-02-02T06:50:11.687Z,88596.00
2023-02-02T06:51:11.661Z,88598.00
2023-02-02T06:52:11.637Z,88596.00
2023-02-02T06:53:11.627Z,88598.00
2023-02-02T06:54:11.592Z,88598.00
2023-02-02T06:55:11.563Z,88598.00
2023-02-02T06:56:11.531Z,88598.00
2023-02-02T06:57:11.509Z,88594.00
2023-02-02T06:58:11.483Z,88596.00
2023-02-02T06:59:11.445Z,88602.00
2023-02-02T07:00:11.433Z,88606.00
2023-02-02T07:01:11.487Z,88604.00
2023-02-02T07:02:11.407Z,88600.00
2023-02-02T07:03:11.332Z,88596.00
2023-02-02T07:04:11.315Z,88592.00
2023-02-02T07:05:11.285Z,88596.00
2023-02-02T07:06:11.252Z,88592.00
2023-02-02T07:07:11.226Z,88598.00
2023-02-02T07:08:11.217Z,88600.00
2023-02-02T07:09:11.170Z,88604.00
2023-02-02T07:11:13.389Z,88608.00
2023-02-02T07:11:15.400Z,88608.00
2023-02-02T07:12:11.098Z,88614.00
2023-02-02T07:13:11.050Z,88616.00
2023-02-02T07:14:11.020Z,88619.00
2023-02-02T07:15:10.992Z,88618.00
2023-02-02T07:16:11.050Z,88623.00
2023-02-02T07:17:10.925Z,88627.00
2023-02-02T07:18:10.899Z,88631.00
2023-02-02T07:19:10.869Z,88631.00
2023-02-02T07:20:10.833Z,88633.00
2023-02-02T07:21:10.810Z,88635.00
2023-02-02T07:22:10.780Z,88633.00
2023-02-02T07:23:10.742Z,88635.00
2023-02-02T07:24:10.736Z,88627.00
2023-02-02T07:25:10.723Z,88623.00
2023-02-02T07:26:10.652Z,88623.00
2023-02-02T07:27:10.639Z,88621.00
2023-02-02T07:28:10.671Z,88627.00
2023-02-02T07:29:10.584Z,88631.00
2023-02-02T07:30:10.604Z,88629.00
2023-02-02T07:31:10.654Z,88625.00
2023-02-02T07:32:10.513Z,88625.00
2023-02-02T07:33:10.488Z,88625.00
2023-02-02T07:34:10.471Z,88621.00
2023-02-02T07:35:10.448Z,88625.00
2023-02-02T07:36:10.425Z,88625.00
2023-02-02T07:37:10.408Z,88621.00
2023-02-02T07:38:10.386Z,88618.00
2023-02-02T07:39:10.371Z,88616.00
2023-02-02T07:40:10.349Z,88621.00
2023-02-02T07:41:10.318Z,88625.00
2023-02-02T07:42:10.302Z,88623.00
2023-02-02T07:43:10.303Z,88627.00
2023-02-02T07:44:10.454Z,88627.00
2023-02-02T07:45:36.510Z,88631.00
2023-02-02T07:46:11.324Z,88631.00
2023-02-02T07:48:10.232Z,88629.00
2023-02-02T07:50:10.127Z,88627.00
2023-02-02T07:51:10.113Z,88635.00
2023-02-02T07:52:10.157Z,88633.00
2023-02-02T07:53:10.103Z,88637.00
2023-02-02T07:54:10.085Z,88639.00
2023-02-02T07:55:14.861Z,88641.00
2023-02-02T07:56:11.074Z,88639.00
2023-02-02T07:57:10.037Z,88641.00
2023-02-02T07:58:10.024Z,88641.00
2023-02-02T07:59:09.992Z,88645.00
2023-02-02T08:00:09.959Z,88645.00
2023-02-02T08:01:09.962Z,88641.00
2023-02-02T08:02:09.917Z,88645.00
2023-02-02T08:03:09.988Z,88645.00
2023-02-02T08:04:09.971Z,88643.00
2023-02-02T08:05:09.886Z,88641.00
2023-02-02T08:06:09.865Z,88637.00
2023-02-02T08:07:09.850Z,88639.00
2023-02-02T08:08:09.832Z,88643.00
2023-02-02T08:09:09.789Z,88637.00
2023-02-02T08:10:09.797Z,88635.00
2023-02-02T08:11:09.736Z,88639.00
2023-02-02T08:12:09.706Z,88637.00
2023-02-02T08:13:09.687Z,88637.00
2023-02-02T08:14:09.673Z,88641.00
2023-02-02T08:15:10.665Z,88647.00
2023-02-02T08:16:09.683Z,88643.00
2023-02-02T08:17:09.593Z,88643.00
2023-02-02T08:18:09.615Z,88647.00
2023-02-02T08:19:09.546Z,88647.00
2023-02-02T08:20:09.542Z,88643.00
2023-02-02T08:21:09.540Z,88641.00
2023-02-02T08:22:09.495Z,88643.00
2023-02-02T08:23:09.479Z,88645.00
2023-02-02T08:24:09.462Z,88645.00
2023-02-02T08:25:09.444Z,88643.00
2023-02-02T08:26:09.436Z,88643.00
2023-02-02T08:27:09.422Z,88645.00
2023-02-02T08:28:09.398Z,88651.00
2023-02-02T08:29:09.383Z,88651.00
2023-02-02T08:30:09.373Z,88651.00
2023-02-02T08:31:09.422Z,88649.00
2023-02-02T08:32:09.354Z,88645.00
2023-02-02T08:33:09.327Z,88641.00
2023-02-02T08:34:09.330Z,88641.00
2023-02-02T08:35:09.288Z,88647.00
2023-02-02T08:36:09.318Z,88649.00
2023-02-02T08:37:09.456Z,88647.00
2023-02-02T08:38:09.259Z,88647.00
2023-02-02T08:39:09.331Z,88651.00
2023-02-02T08:40:09.282Z,88655.00
2023-02-02T08:41:09.232Z,88647.00
2023-02-02T08:42:09.203Z,88639.00
2023-02-02T08:43:10.649Z,88643.00
2023-02-02T08:44:11.297Z,88639.00
2023-02-02T08:46:02.882Z,88643.00
2023-02-02T08:46:10.236Z,88643.00
2023-02-02T08:47:09.227Z,88639.00
2023-02-02T08:48:12.644Z,88641.00
2023-02-02T08:49:09.122Z,88643.00
2023-02-02T08:50:09.081Z,88643.00
2023-02-02T08:51:09.074Z,88643.00
2023-02-02T08:52:09.043Z,88641.00
2023-02-02T08:53:09.011Z,88645.00
2023-02-02T08:54:09.023Z,88649.00
2023-02-02T08:55:08.975Z,88655.00
2023-02-02T08:56:08.970Z,88655.00
2023-02-02T08:57:08.948Z,88657.00
2023-02-02T08:58:08.919Z,88659.00
2023-02-02T08:59:08.914Z,88661.00
2023-02-02T09:00:08.886Z,88657.00
2023-02-02T09:01:08.915Z,88657.00
2023-02-02T09:02:08.835Z,88657.00
2023-02-02T09:03:08.795Z,88665.00
2023-02-02T09:04:08.810Z,88657.00
2023-02-02T09:05:08.740Z,88659.00
2023-02-02T09:06:08.731Z,88665.00
2023-02-02T09:07:08.698Z,88666.00
2023-02-02T09:08:08.679Z,88665.00
2023-02-02T09:09:08.656Z,88663.00
2023-02-02T09:10:08.630Z,88663.00
2023-02-02T09:11:08.609Z,88672.00
2023-02-02T09:12:08.597Z,88674.00
2023-02-02T09:13:08.568Z,88680.00
2023-02-02T09:14:08.553Z,88678.00
2023-02-02T09:15:08.529Z,88682.00
2023-02-02T09:16:08.591Z,88678.00
2023-02-02T09:17:08.500Z,88676.00
2023-02-02T09:18:08.471Z,88682.00
2023-02-02T09:19:08.432Z,88684.00
2023-02-02T09:20:08.440Z,88684.00
2023-02-02T09:21:08.401Z,88684.00
2023-02-02T09:22:08.423Z,88686.00
2023-02-02T09:23:08.370Z,88692.00
2023-02-02T09:24:08.345Z,88694.00
2023-02-02T09:25:08.313Z,88694.00
2023-02-02T09:26:08.356Z,88696.00
2023-02-02T09:27:08.277Z,88696.00
2023-02-02T09:28:08.254Z,88698.00
2023-02-02T09:29:08.247Z,88704.00
2023-02-02T09:30:08.255Z,88712.00
2023-02-02T09:31:08.277Z,88712.00
2023-02-02T09:32:08.495Z,88710.00
2023-02-02T09:33:08.159Z,88708.00
2023-02-02T09:34:08.130Z,88702.00
2023-02-02T09:35:08.130Z,88708.00
2023-02-02T09:36:08.088Z,88710.00
2023-02-02T09:37:08.093Z,88720.00
2023-02-02T09:38:08.059Z,88727.00
2023-02-02T09:39:08.025Z,88733.00
2023-02-02T09:40:08.008Z,88727.00
2023-02-02T09:41:07.985Z,88727.00
2023-02-02T09:42:08.009Z,88731.00
2023-02-02T09:43:07.928Z,88731.00
2023-02-02T09:44:07.908Z,88727.00
2023-02-02T09:45:07.886Z,88718.00
2023-02-02T09:46:07.946Z,88720.00
2023-02-02T09:47:07.844Z,88733.00
2023-02-02T09:48:07.817Z,88737.00
2023-02-02T09:49:07.827Z,88733.00
2023-02-02T09:50:07.768Z,88733.00
2023-02-02T09:51:07.748Z,88735.00
2023-02-02T09:52:07.724Z,88731.00
2023-02-02T09:53:08.067Z,88733.00
2023-02-02T09:54:07.652Z,88735.00
2023-02-02T09:55:07.630Z,88741.00
2023-02-02T09:56:07.592Z,88746.00
2023-02-02T09:57:07.567Z,88742.00
2023-02-02T09:58:07.575Z,88741.00
2023-02-02T09:59:19.415Z,88739.00
2023-02-02T10:00:08.541Z,88744.00
2023-02-02T10:01:07.517Z,88750.00
2023-02-02T10:02:07.422Z,88754.00
2023-02-02T10:03:07.412Z,88750.00
2023-02-02T10:04:07.431Z,88742.00
2023-02-02T10:05:08.318Z,88739.00
2023-02-02T10:06:07.319Z,88741.00
2023-02-02T10:07:07.289Z,88750.00
2023-02-02T10:08:07.265Z,88754.00
2023-02-02T10:09:07.229Z,88758.00
2023-02-02T10:10:07.197Z,88762.00
2023-02-02T10:11:07.157Z,88762.00
2023-02-02T10:12:07.129Z,88758.00
2023-02-02T10:13:07.122Z,88756.00
2023-02-02T10:14:07.097Z,88756.00
2023-02-02T10:15:07.056Z,88760.00
2023-02-02T10:16:07.060Z,88760.00
2023-02-02T10:17:06.991Z,88756.00
2023-02-02T10:18:06.959Z,88760.00
2023-02-02T10:19:06.927Z,88762.00
2023-02-02T10:20:06.893Z,88764.00
2023-02-02T10:21:06.997Z,88762.00
2023-02-02T10:22:06.833Z,88758.00
2023-02-02T10:23:06.794Z,88756.00
2023-02-02T10:24:06.771Z,88758.00
2023-02-02T10:25:06.729Z,88764.00
2023-02-02T10:26:06.697Z,88762.00
2023-02-02T10:27:06.664Z,88756.00
2023-02-02T10:28:06.639Z,88758.00
2023-02-02T10:29:06.611Z,88758.00
2023-02-02T10:30:06.594Z,88752.00
2023-02-02T10:31:06.642Z,88744.00
2023-02-02T10:32:06.617Z,88748.00
2023-02-02T10:33:06.488Z,88746.00
2023-02-02T10:34:06.438Z,88744.00
2023-02-02T10:35:13.438Z,88744.00
2023-02-02T10:36:07.379Z,88746.00
2023-02-02T10:37:06.338Z,88750.00
2023-02-02T10:38:07.455Z,88746.00
2023-02-02T10:39:06.277Z,88742.00
2023-02-02T10:40:06.337Z,88744.00
2023-02-02T10:41:06.194Z,88744.00
2023-02-02T10:42:06.191Z,88748.00
2023-02-02T10:43:06.148Z,88746.00
2023-02-02T10:44:06.126Z,88739.00
2023-02-02T10:45:06.055Z,88733.00
2023-02-02T10:46:06.046Z,88733.00
2023-02-02T10:47:05.983Z,88739.00
2023-02-02T10:48:05.930Z,88737.00
2023-02-02T10:49:05.923Z,88741.00
2023-02-02T10:50:05.877Z,88741.00
2023-02-02T10:51:05.861Z,88744.00
2023-02-02T10:52:05.789Z,88742.00
2023-02-02T10:53:05.762Z,88744.00
2023-02-02T10:54:05.726Z,88741.00
2023-02-02T10:55:05.695Z,88739.00
2023-02-02T10:56:05.660Z,88742.00
2023-02-02T10:57:05.636Z,88741.00
2023-02-02T10:58:05.666Z,88739.00
2023-02-02T10:59:05.572Z,88739.00
2023-02-02T11:00:05.536Z,88739.00
2023-02-02T11:01:05.488Z,88741.00
2023-02-02T11:02:19.948Z,88737.00
2023-02-02T11:03:06.463Z,88735.00
2023-02-02T11:04:05.386Z,88735.00
2023-02-02T11:05:05.344Z,88744.00
2023-02-02T11:06:05.310Z,88742.00
2023-02-02T11:07:05.280Z,88741.00
2023-02-02T11:08:05.228Z,88737.00
2023-02-02T11:09:05.199Z,88737.00
2023-02-02T11:10:05.164Z,88739.00
2023-02-02T11:11:05.137Z,88739.00
2023-02-02T11:12:05.114Z,88731.00
2023-02-02T11:13:05.101Z,88733.00
2023-02-02T11:14:05.074Z,88735.00
2023-02-02T11:15:05.149Z,88737.00
2023-02-02T11:16:05.895Z,88739.00
2023-02-02T11:17:04.950Z,88742.00
2023-02-02T11:18:04.943Z,88744.00
2023-02-02T11:19:04.916Z,88746.00
2023-02-02T11:20:04.867Z,88750.00
2023-02-02T11:21:04.847Z,88750.00
2023-02-02T11:22:04.805Z,88748.00
2023-02-02T11:23:04.783Z,88742.00
2023-02-02T11:24:04.752Z,88741.00
2023-02-02T11:25:04.723Z,88737.00
2023-02-02T11:26:04.689Z,88741.00
2023-02-02T11:27:04.698Z,88744.00
2023-02-02T11:28:04.645Z,88748.00
2023-02-02T11:29:04.616Z,88752.00
2023-02-02T11:30:04.579Z,88746.00
2023-02-02T11:31:04.643Z,88741.00
2023-02-02T11:32:04.555Z,88737.00
2023-02-02T11:33:04.497Z,88741.00
2023-02-02T11:34:04.485Z,88748.00
2023-02-02T11:35:04.458Z,88748.00
2023-02-02T11:36:04.424Z,88744.00
2023-02-02T11:37:04.392Z,88741.00
2023-02-02T11:38:04.363Z,88739.00
2023-02-02T11:39:04.334Z,88741.00
2023-02-02T11:40:04.336Z,88741.00
2023-02-02T11:41:04.339Z,88742.00
2023-02-02T11:42:04.264Z,88741.00
2023-02-02T11:43:04.269Z,88742.00
2023-02-02T11:44:04.190Z,88742.00
2023-02-02T11:45:04.161Z,88739.00
2023-02-02T11:46:04.298Z,88739.00
2023-02-02T11:47:04.115Z,88741.00
2023-02-02T11:48:04.065Z,88739.00
2023-02-02T11:49:04.038Z,88742.00
2023-02-02T11:50:04.039Z,88742.00
2023-02-02T11:51:04.069Z,88741.00
2023-02-02T11:52:03.949Z,88737.00
2023-02-02T12:08:03.449Z,88712.00
2023-02-02T12:10:03.426Z,88710.00
2023-02-02T12:11:03.370Z,88704.00
2023-02-02T12:12:03.352Z,88702.00
2023-02-02T12:13:03.338Z,88700.00
2023-02-02T12:14:03.295Z,88698.00
2023-02-02T12:15:03.267Z,88696.00
2023-02-02T12:16:03.231Z,88696.00
2023-02-02T12:17:03.192Z,88700.00
2023-02-02T12:18:03.161Z,88700.00
2023-02-02T12:19:03.150Z,88696.00
2023-02-02T12:20:03.097Z,88694.00
2023-02-02T12:21:05.963Z,88692.00